createdAt,value
2022-11-15T00:01:11.664Z,9.97
2022-11-15T00:03:39.127Z,9.91
2022-11-15T00:06:07.926Z,9.90
2022-11-15T00:08:35.527Z,9.94
2022-11-15T00:11:04.835Z,9.88
2022-11-15T00:13:32.693Z,9.81
2022-11-15T00:16:01.606Z,9.96
2022-11-15T00:18:29.626Z,9.66
2022-11-15T00:20:57.781Z,9.16
2022-11-15T00:23:26.506Z,9.26
2022-11-15T00:26:00.462Z,9.73
2022-11-15T00:28:28.509Z,9.89
2022-11-15T00:30:56.164Z,9.85
2022-11-15T00:33:23.757Z,9.62
2022-11-15T00:35:51.196Z,9.91
2022-11-15T00:38:18.694Z,9.78
2022-11-15T00:40:47.500Z,10.01
2022-11-15T00:43:15.101Z,10.03
2022-11-15T00:45:42.852Z,10.12
2022-11-15T00:48:11.673Z,10.00
2022-11-15T00:50:39.144Z,9.99
2022-11-15T00:53:06.579Z,10.07
2022-11-15T00:55:34.110Z,9.85
2022-11-15T00:58:02.849Z,9.80
2022-11-15T01:00:30.530Z,9.85
2022-11-15T01:02:58.085Z,9.77
2022-11-15T01:05:25.796Z,9.84
2022-11-15T01:07:53.910Z,9.77
2022-11-15T01:10:21.637Z,9.78
2022-11-15T01:12:49.290Z,9.83
2022-11-15T01:15:18.335Z,9.87
2022-11-15T01:17:45.772Z,9.86
2022-11-15T01:20:13.853Z,9.85
2022-11-15T01:22:41.327Z,9.89
2022-11-15T01:25:08.744Z,9.71
2022-11-15T01:27:36.185Z,9.96
2022-11-15T01:30:03.745Z,9.86
2022-11-15T01:32:32.533Z,9.74
2022-11-15T01:34:59.936Z,9.74
2022-11-15T01:37:27.375Z,9.88
2022-11-15T01:39:54.808Z,9.92
2022-11-15T01:42:22.219Z,9.80
2022-11-15T01:44:51.479Z,9.92
2022-11-15T01:47:22.131Z,9.84
2022-11-15T01:49:57.181Z,9.91
2022-11-15T01:52:27.238Z,9.89
2022-11-15T01:54:58.349Z,9.79
2022-11-15T01:57:25.961Z,9.79
2022-11-15T01:59:53.347Z,9.71
2022-11-15T02:02:20.755Z,9.45
2022-11-15T02:04:49.344Z,9.60
2022-11-15T02:07:19.807Z,9.53
2022-11-15T02:09:47.918Z,9.60
2022-11-15T02:12:18.337Z,9.73
2022-11-15T02:14:50.144Z,9.74
2022-11-15T02:17:33.380Z,9.77
2022-11-15T02:20:30.990Z,9.78
2022-11-15T02:23:16.046Z,9.81
2022-11-15T02:25:58.990Z,9.55
2022-11-15T02:28:46.603Z,9.64
2022-11-15T02:31:27.215Z,9.26
2022-11-15T02:34:00.530Z,9.50
2022-11-15T02:36:37.682Z,9.36
2022-11-15T02:39:12.222Z,9.39
2022-11-15T02:41:47.827Z,9.52
2022-11-15T02:44:22.589Z,9.55
2022-11-15T02:47:12.519Z,9.60
2022-11-15T02:49:42.695Z,9.65
2022-11-15T02:52:10.111Z,9.56
2022-11-15T02:54:37.658Z,8.98
2022-11-15T02:57:09.020Z,9.42
2022-11-15T02:59:59.959Z,9.59
2022-11-15T03:02:44.754Z,9.49
2022-11-15T03:05:21.224Z,9.68
2022-11-15T03:08:01.866Z,9.54
2022-11-15T03:10:37.939Z,9.27
2022-11-15T03:13:14.035Z,9.61
2022-11-15T03:15:49.535Z,9.55
2022-11-15T03:18:23.422Z,9.54
2022-11-15T03:20:52.337Z,9.38
2022-11-15T03:23:19.920Z,9.56
2022-11-15T03:25:50.756Z,9.40
2022-11-15T03:28:24.411Z,8.94
2022-11-15T03:30:54.096Z,9.05
2022-11-15T03:33:23.975Z,9.41
2022-11-15T03:35:53.212Z,9.52
2022-11-15T03:38:25.358Z,9.49
2022-11-15T03:41:02.016Z,9.40
2022-11-15T03:43:34.774Z,9.43
2022-11-15T03:46:06.447Z,9.65
2022-11-15T03:48:42.110Z,9.66
2022-11-15T03:51:09.977Z,9.50
2022-11-15T03:53:37.545Z,9.50
2022-11-15T03:56:05.279Z,9.41
2022-11-15T03:58:32.728Z,9.40
2022-11-15T04:01:00.450Z,9.63
2022-11-15T04:03:28.323Z,9.60
2022-11-15T04:05:57.215Z,9.50
2022-11-15T04:08:24.644Z,9.67
2022-11-15T04:10:52.096Z,9.18
2022-11-15T04:13:19.539Z,9.47
2022-11-15T04:15:47.009Z,9.72
2022-11-15T04:18:14.420Z,9.66
2022-11-15T04:20:59.230Z,9.72
2022-11-15T04:23:45.789Z,9.67
2022-11-15T04:26:16.462Z,9.62
2022-11-15T04:28:57.930Z,9.60
2022-11-15T04:31:25.317Z,9.62
2022-11-15T04:33:52.858Z,9.48
2022-11-15T04:36:38.402Z,9.37
2022-11-15T04:39:07.416Z,9.56
2022-11-15T04:41:35.064Z,9.59
2022-11-15T04:44:02.544Z,9.38
2022-11-15T04:46:30.116Z,9.47
2022-11-15T04:48:59.269Z,9.54
2022-11-15T04:51:26.981Z,9.50
2022-11-15T04:53:54.609Z,9.62
2022-11-15T04:56:23.324Z,9.61
2022-11-15T04:58:50.813Z,9.52
2022-11-15T05:01:18.777Z,9.59
2022-11-15T05:04:04.263Z,9.60
2022-11-15T05:06:32.273Z,9.65
2022-11-15T05:09:00.259Z,9.54
2022-11-15T05:11:29.141Z,9.43
2022-11-15T05:13:57.011Z,9.53
2022-11-15T05:16:24.469Z,9.59
2022-11-15T05:18:53.256Z,9.63
2022-11-15T05:21:22.369Z,9.59
2022-11-15T05:23:49.883Z,9.47
2022-11-15T05:26:19.009Z,9.54
2022-11-15T05:28:47.747Z,9.61
2022-11-15T05:31:17.475Z,9.56
2022-11-15T05:33:46.060Z,9.60
2022-11-15T05:36:18.955Z,9.58
2022-11-15T05:38:47.438Z,9.52
2022-11-15T05:41:16.073Z,9.57
2022-11-15T05:43:45.378Z,9.56
2022-11-15T05:46:15.628Z,9.52
2022-11-15T05:48:47.177Z,9.58
2022-11-15T05:51:17.319Z,9.17
2022-11-15T05:53:45.372Z,9.38
2022-11-15T05:56:13.638Z,9.37
2022-11-15T05:58:41.089Z,9.31
2022-11-15T06:01:08.606Z,9.33
2022-11-15T06:03:37.324Z,9.49
2022-11-15T06:06:05.024Z,9.35
2022-11-15T06:08:32.477Z,9.22
2022-11-15T06:11:05.594Z,9.40
2022-11-15T06:13:33.807Z,9.47
2022-11-15T06:16:01.814Z,9.34
2022-11-15T06:18:29.221Z,9.36
2022-11-15T06:21:01.647Z,8.82
2022-11-15T06:23:29.546Z,9.25
2022-11-15T06:25:59.900Z,9.44
2022-11-15T06:28:30.055Z,9.34
2022-11-15T06:30:57.988Z,9.22
2022-11-15T06:33:25.455Z,9.34
2022-11-15T06:35:52.891Z,9.47
2022-11-15T06:38:21.938Z,9.50
2022-11-15T06:40:49.366Z,9.45
2022-11-15T06:43:17.718Z,9.55
2022-11-15T06:45:45.111Z,9.57
2022-11-15T06:48:12.535Z,9.50
2022-11-15T06:50:39.930Z,9.52
2022-11-15T06:53:07.336Z,9.62
2022-11-15T06:55:36.095Z,9.68
2022-11-15T06:58:03.562Z,9.68
2022-11-15T07:00:30.988Z,9.70
2022-11-15T07:03:01.823Z,9.79
2022-11-15T07:05:29.436Z,9.65
2022-11-15T07:07:58.142Z,9.61
2022-11-15T07:10:26.482Z,9.70
2022-11-15T07:12:56.207Z,9.67
2022-11-15T07:15:26.140Z,9.68
2022-11-15T07:17:53.738Z,9.87
2022-11-15T07:20:21.179Z,9.89
2022-11-15T07:22:48.579Z,9.92
2022-11-15T07:25:16.004Z,9.96
2022-11-15T07:27:43.570Z,9.73
2022-11-15T07:30:15.649Z,9.86
2022-11-15T07:32:43.308Z,9.96
2022-11-15T07:35:10.781Z,10.18
2022-11-15T07:37:38.169Z,9.99
2022-11-15T07:40:06.396Z,10.22
2022-11-15T07:42:51.429Z,10.21
2022-11-15T07:45:20.370Z,10.00
2022-11-15T07:47:48.142Z,9.99
2022-11-15T07:50:15.761Z,10.27
2022-11-15T07:52:43.178Z,10.21
2022-11-15T07:55:10.935Z,10.07
2022-11-15T07:57:38.470Z,10.23
2022-11-15T08:00:07.957Z,10.30
2022-11-15T08:02:36.773Z,10.24
2022-11-15T08:05:04.937Z,9.81
2022-11-15T08:07:33.146Z,10.20
2022-11-15T08:10:02.107Z,10.40
2022-11-15T08:12:30.538Z,10.56
2022-11-15T08:14:57.992Z,10.60
2022-11-15T08:17:26.335Z,10.62
2022-11-15T08:19:55.609Z,10.65
2022-11-15T08:22:23.047Z,10.60
2022-11-15T08:24:50.522Z,10.76
2022-11-15T08:27:18.011Z,10.73
2022-11-15T08:29:46.404Z,10.70
2022-11-15T08:32:13.910Z,10.88
2022-11-15T08:34:41.376Z,10.81
2022-11-15T08:37:10.092Z,11.02
2022-11-15T08:39:37.506Z,11.06
2022-11-15T08:42:05.226Z,10.94
2022-11-15T08:44:32.650Z,11.01
2022-11-15T08:47:00.020Z,11.15
2022-11-15T08:49:27.474Z,11.16
2022-11-15T08:51:54.861Z,10.94
2022-11-15T08:54:23.653Z,10.99
2022-11-15T08:56:51.106Z,11.27
2022-11-15T08:59:18.472Z,11.32
2022-11-15T09:01:45.959Z,11.32
2022-11-15T09:04:13.425Z,11.45
2022-11-15T09:06:43.170Z,11.36
2022-11-15T09:09:13.213Z,12.30
2022-11-15T09:11:42.020Z,12.44
2022-11-15T09:14:09.726Z,12.67
2022-11-15T09:16:37.144Z,13.07
2022-11-15T09:19:10.414Z,13.59
2022-11-15T09:21:39.135Z,13.98
2022-11-15T09:24:07.080Z,14.20
2022-11-15T09:26:34.553Z,14.36
2022-11-15T09:29:03.468Z,14.23
2022-11-15T09:31:31.355Z,15.24
2022-11-15T09:33:58.777Z,14.53
2022-11-15T09:36:26.703Z,14.82
2022-11-15T09:38:54.131Z,14.20
2022-11-15T09:41:52.421Z,14.82
2022-11-15T09:44:44.704Z,14.79
2022-11-15T09:47:34.108Z,14.87
2022-11-15T09:50:03.966Z,15.14
2022-11-15T09:52:31.338Z,14.78
2022-11-15T09:54:58.812Z,13.99
2022-11-15T09:57:33.393Z,13.51
2022-11-15T10:00:43.835Z,13.15
2022-11-15T10:03:09.889Z,13.25
2022-11-15T10:05:40.584Z,13.23
2022-11-15T10:08:23.179Z,13.22
2022-11-15T10:11:15.780Z,13.13
2022-11-15T10:13:44.958Z,13.08
2022-11-15T10:16:48.525Z,12.76
2022-11-15T10:19:25.687Z,12.73
2022-11-15T10:22:02.504Z,12.98
2022-11-15T10:24:35.707Z,13.20
2022-11-15T10:27:03.404Z,13.24
2022-11-15T10:29:30.855Z,13.24
2022-11-15T10:31:58.267Z,13.12
2022-11-15T10:34:28.085Z,13.29
2022-11-15T10:37:01.198Z,13.54
2022-11-15T10:39:28.770Z,13.57
2022-11-15T10:41:56.286Z,13.71
2022-11-15T10:44:30.502Z,13.25
2022-11-15T10:47:39.477Z,13.55
2022-11-15T10:50:28.847Z,13.45
2022-11-15T10:52:56.646Z,13.81
2022-11-15T10:55:28.140Z,13.57
2022-11-15T10:57:58.058Z,13.86
2022-11-15T11:00:34.807Z,13.78
2022-11-15T11:03:04.783Z,13.72
2022-11-15T11:05:41.298Z,13.93
2022-11-15T11:08:24.369Z,14.07
2022-11-15T11:11:01.427Z,13.68
2022-11-15T11:13:31.905Z,13.43
2022-11-15T11:16:11.507Z,13.93
2022-11-15T11:18:51.623Z,14.24
2022-11-15T11:21:33.010Z,14.39
2022-11-15T11:24:10.215Z,14.34
2022-11-15T11:26:45.459Z,14.43
2022-11-15T11:29:28.010Z,14.28
2022-11-15T11:32:03.825Z,14.41
2022-11-15T11:34:44.938Z,14.13
2022-11-15T11:37:19.748Z,14.31
2022-11-15T11:39:58.627Z,14.40
2022-11-15T11:42:34.396Z,14.48
2022-11-15T11:45:13.596Z,14.31
2022-11-15T11:47:42.401Z,14.15
2022-11-15T11:50:15.914Z,14.38
2022-11-15T11:52:53.656Z,14.35
2022-11-15T11:55:25.078Z,14.46
2022-11-15T11:58:00.833Z,14.28
2022-11-15T12:00:29.504Z,14.33
2022-11-15T12:03:08.066Z,14.49
2022-11-15T12:05:38.980Z,14.47
2022-11-15T12:08:24.598Z,14.27
2022-11-15T12:10:59.598Z,14.45
2022-11-15T12:13:34.356Z,14.17
2022-11-15T12:16:10.473Z,14.58
2022-11-15T12:18:39.313Z,14.63
2022-11-15T12:21:28.155Z,14.40
2022-11-15T12:24:05.251Z,14.81
2022-11-15T12:26:38.459Z,14.97
2022-11-15T12:29:14.707Z,14.62
2022-11-15T12:31:45.789Z,14.80
2022-11-15T12:34:36.938Z,14.75
2022-11-15T12:37:56.075Z,14.63
2022-11-15T12:40:36.623Z,14.93
2022-11-15T12:43:21.322Z,14.94
2022-11-15T12:45:48.774Z,14.96
2022-11-15T12:48:59.050Z,14.94
2022-11-15T12:52:09.269Z,14.94
2022-11-15T12:54:55.052Z,15.15
2022-11-15T12:57:42.628Z,14.83
2022-11-15T13:00:39.239Z,15.09
2022-11-15T13:03:26.979Z,14.89
2022-11-15T13:06:00.598Z,14.84
2022-11-15T13:08:44.821Z,14.90
2022-11-15T13:11:49.831Z,14.96
2022-11-15T13:14:50.745Z,15.09
2022-11-15T13:17:44.403Z,15.19
2022-11-15T13:20:27.876Z,15.18
2022-11-15T13:23:03.259Z,15.14
2022-11-15T13:25:49.849Z,15.04
2022-11-15T13:28:26.430Z,15.32
2022-11-15T13:30:58.050Z,15.53
2022-11-15T13:33:35.551Z,15.31
2022-11-15T13:36:06.035Z,15.11
2022-11-15T13:38:35.988Z,15.00
2022-11-15T13:41:16.242Z,15.10
2022-11-15T13:43:43.704Z,15.14
2022-11-15T13:46:19.198Z,15.20
2022-11-15T13:48:48.157Z,15.14
2022-11-15T13:51:22.659Z,15.17
2022-11-15T13:53:54.725Z,14.89
2022-11-15T13:56:23.005Z,15.18
2022-11-15T13:58:50.672Z,15.36
2022-11-15T14:01:22.302Z,15.13
2022-11-15T14:03:53.776Z,15.04
2022-11-15T14:06:23.590Z,15.08
2022-11-15T14:09:04.388Z,14.96
2022-11-15T14:11:32.719Z,15.06
2022-11-15T14:14:16.578Z,15.04
2022-11-15T14:16:47.316Z,15.33
2022-11-15T14:19:36.230Z,15.22
2022-11-15T14:22:11.188Z,15.02
2022-11-15T14:24:39.584Z,14.95
2022-11-15T14:27:25.482Z,14.70
2022-11-15T14:29:53.553Z,14.37
2022-11-15T14:32:24.223Z,14.47
2022-11-15T14:34:56.712Z,14.85
2022-11-15T14:37:26.901Z,14.73
2022-11-15T14:39:55.236Z,14.76
2022-11-15T14:42:24.051Z,14.83
2022-11-15T14:44:52.160Z,14.97
2022-11-15T14:47:19.638Z,14.42
2022-11-15T14:49:48.520Z,14.45
2022-11-15T14:52:31.758Z,14.61
2022-11-15T14:55:00.290Z,14.50
2022-11-15T14:57:27.787Z,14.57
2022-11-15T14:59:56.271Z,14.62
2022-11-15T15:02:25.698Z,14.69
2022-11-15T15:04:55.088Z,14.48
2022-11-15T15:07:22.695Z,14.40
2022-11-15T15:09:50.220Z,14.23
2022-11-15T15:12:20.511Z,14.49
2022-11-15T15:14:49.207Z,14.53
2022-11-15T15:17:16.860Z,14.63
2022-11-15T15:19:44.645Z,14.47
2022-11-15T15:22:17.083Z,14.40
2022-11-15T15:24:44.866Z,14.29
2022-11-15T15:27:12.755Z,14.28
2022-11-15T15:29:40.346Z,14.36
2022-11-15T15:32:08.060Z,14.32
2022-11-15T15:34:35.587Z,14.25
2022-11-15T15:37:10.714Z,14.18
2022-11-15T15:39:40.117Z,14.13
2022-11-15T15:42:07.560Z,14.24
2022-11-15T15:44:34.975Z,14.05
2022-11-15T15:47:02.387Z,14.10
2022-11-15T15:49:29.862Z,13.93
2022-11-15T15:51:57.287Z,14.08
2022-11-15T15:54:24.720Z,14.11
2022-11-15T15:56:56.159Z,13.68
2022-11-15T15:59:23.855Z,13.52
2022-11-15T16:01:51.270Z,13.81
2022-11-15T16:04:18.752Z,13.61
2022-11-15T16:06:46.367Z,13.48
2022-11-15T16:09:17.358Z,13.45
2022-11-15T16:11:47.389Z,13.49
2022-11-15T16:14:16.154Z,13.27
2022-11-15T16:16:43.594Z,13.64
2022-11-15T16:19:12.936Z,13.55
2022-11-15T16:21:40.342Z,13.87
2022-11-15T16:24:07.818Z,13.72
2022-11-15T16:26:37.696Z,13.83
2022-11-15T16:29:05.137Z,13.70
2022-11-15T16:31:33.834Z,13.87
2022-11-15T16:34:01.391Z,13.31
2022-11-15T16:36:31.264Z,13.42
2022-11-15T16:38:59.358Z,13.20
2022-11-15T16:41:27.688Z,13.09
2022-11-15T16:43:55.139Z,13.13
2022-11-15T16:46:24.224Z,12.97
2022-11-15T16:48:54.178Z,12.97
2022-11-15T16:51:22.083Z,13.07
2022-11-15T16:53:50.041Z,13.06
2022-11-15T16:56:23.450Z,13.13
2022-11-15T16:58:50.937Z,13.20
2022-11-15T17:01:20.988Z,12.90
2022-11-15T17:03:48.531Z,12.43
2022-11-15T17:06:18.840Z,12.19
2022-11-15T17:08:47.169Z,11.97
2022-11-15T17:11:17.189Z,11.78
2022-11-15T17:13:45.673Z,11.95
2022-11-15T17:16:15.046Z,11.36
2022-11-15T17:18:45.569Z,11.67
2022-11-15T17:21:15.539Z,11.59
2022-11-15T17:23:44.715Z,11.37
2022-11-15T17:26:32.214Z,11.72
2022-11-15T17:29:02.373Z,11.81
2022-11-15T17:31:31.203Z,11.70
2022-11-15T17:33:58.714Z,12.30
2022-11-15T17:36:26.110Z,12.36
2022-11-15T17:38:59.238Z,12.00
2022-11-15T17:41:27.426Z,11.54
2022-11-15T17:43:57.911Z,11.46
2022-11-15T17:46:25.615Z,11.46
2022-11-15T17:48:53.123Z,10.97
2022-11-15T17:51:20.543Z,10.87
2022-11-15T17:53:49.156Z,10.86
2022-11-15T17:56:20.135Z,11.06
2022-11-15T17:58:51.711Z,10.93
2022-11-15T18:01:20.972Z,11.36
2022-11-15T18:03:49.000Z,11.25
2022-11-15T18:06:17.473Z,10.76
2022-11-15T18:08:46.617Z,11.23
2022-11-15T18:11:16.430Z,11.04
2022-11-15T18:13:52.065Z,10.97
2022-11-15T18:16:21.888Z,10.87
2022-11-15T18:18:49.767Z,10.26
2022-11-15T18:21:20.075Z,11.03
2022-11-15T18:23:48.524Z,10.64
2022-11-15T18:26:19.444Z,11.06
2022-11-15T18:28:50.686Z,10.86
2022-11-15T18:31:19.744Z,10.79
2022-11-15T18:33:47.252Z,10.50
2022-11-15T18:36:16.571Z,10.25
2022-11-15T18:38:44.283Z,9.79
2022-11-15T18:41:14.789Z,10.02
2022-11-15T18:43:42.272Z,10.15
2022-11-15T18:46:13.123Z,9.75
2022-11-15T18:48:42.426Z,9.80
2022-11-15T18:51:12.004Z,9.55
2022-11-15T18:53:40.883Z,10.01
2022-11-15T18:56:10.008Z,9.74
2022-11-15T18:58:39.229Z,9.68
2022-11-15T19:01:08.343Z,9.84
2022-11-15T19:03:39.914Z,10.41
2022-11-15T19:06:10.025Z,9.71
2022-11-15T19:08:38.202Z,9.60
2022-11-15T19:11:06.863Z,9.54
2022-11-15T19:13:35.482Z,9.61
2022-11-15T19:16:04.715Z,9.61
2022-11-15T19:18:33.746Z,10.05
2022-11-15T19:21:05.679Z,9.89
2022-11-15T19:23:34.790Z,9.05
2022-11-15T19:26:04.008Z,9.40
2022-11-15T19:28:32.206Z,9.45
2022-11-15T19:31:05.359Z,9.06
2022-11-15T19:33:33.932Z,8.74
2022-11-15T19:36:02.423Z,9.16
2022-11-15T19:38:33.054Z,9.87
2022-11-15T19:41:00.612Z,8.86
2022-11-15T19:43:28.915Z,8.73
2022-11-15T19:46:02.093Z,8.94
2022-11-15T19:48:31.680Z,8.77
2022-11-15T19:51:01.606Z,8.83
2022-11-15T19:53:34.622Z,8.71
2022-11-15T19:56:06.990Z,8.90
2022-11-15T19:58:34.791Z,9.05
2022-11-15T20:01:03.353Z,9.16
2022-11-15T20:03:32.611Z,8.57
2022-11-15T20:06:04.075Z,9.25
2022-11-15T20:08:31.960Z,9.02
2022-11-15T20:11:00.223Z,8.85
2022-11-15T20:13:29.075Z,8.65
2022-11-15T20:15:57.457Z,8.55
2022-11-15T20:18:25.797Z,8.75
2022-11-15T20:20:55.317Z,8.38
2022-11-15T20:23:23.197Z,8.13
2022-11-15T20:25:50.750Z,7.97
2022-11-15T20:28:20.017Z,7.74
2022-11-15T20:30:49.876Z,8.36
2022-11-15T20:33:17.828Z,8.21
2022-11-15T20:35:45.278Z,8.11
2022-11-15T20:38:13.208Z,8.18
2022-11-15T20:40:41.157Z,8.68
2022-11-15T20:43:13.039Z,8.60
2022-11-15T20:45:40.661Z,8.57
2022-11-15T20:48:10.787Z,8.28
2022-11-15T20:50:43.126Z,8.81
2022-11-15T20:53:12.655Z,7.79
2022-11-15T20:55:41.984Z,7.86
2022-11-15T20:58:10.038Z,8.08
2022-11-15T21:00:37.773Z,7.73
2022-11-15T21:03:06.881Z,7.76
2022-11-15T21:05:36.405Z,8.46
2022-11-15T21:08:03.826Z,8.08
2022-11-15T21:10:48.661Z,7.67
2022-11-15T21:13:16.060Z,8.30
2022-11-15T21:15:43.540Z,7.77
2022-11-15T21:18:11.132Z,8.27
2022-11-15T21:20:39.863Z,8.26
2022-11-15T21:23:07.264Z,8.58
2022-11-15T21:25:35.312Z,8.31
2022-11-15T21:28:02.834Z,8.30
2022-11-15T21:30:30.407Z,8.38
2022-11-15T21:32:57.843Z,8.37
2022-11-15T21:35:25.336Z,8.53
2022-11-15T21:37:56.943Z,8.26
2022-11-15T21:40:24.565Z,7.61
2022-11-15T21:42:52.100Z,7.53
2022-11-15T21:45:19.481Z,7.45
2022-11-15T21:47:47.011Z,7.38
2022-11-15T21:50:14.693Z,7.38
2022-11-15T21:52:42.249Z,7.47
2022-11-15T21:55:11.304Z,8.20
2022-11-15T21:57:38.703Z,7.64
2022-11-15T22:00:24.348Z,7.52
2022-11-15T22:02:51.753Z,7.25
2022-11-15T22:05:19.197Z,7.52
2022-11-15T22:07:46.770Z,7.31
2022-11-15T22:10:15.488Z,7.38
2022-11-15T22:12:42.864Z,7.89
2022-11-15T22:15:10.782Z,7.51
2022-11-15T22:17:55.508Z,7.37
2022-11-15T22:20:43.518Z,7.85
2022-11-15T22:23:10.306Z,7.80
2022-11-15T22:25:39.043Z,7.48
2022-11-15T22:28:06.441Z,7.70
2022-11-15T22:30:33.835Z,7.57
2022-11-15T22:33:01.245Z,8.18
2022-11-15T22:35:28.675Z,7.78
2022-11-15T22:37:56.046Z,7.28
2022-11-15T22:40:23.444Z,7.67
2022-11-15T22:42:52.180Z,8.25
2022-11-15T22:45:19.646Z,7.59
2022-11-15T22:47:47.070Z,7.45
2022-11-15T22:50:14.620Z,7.83
2022-11-15T22:52:42.079Z,7.58
2022-11-15T22:55:10.374Z,7.24
2022-11-15T22:57:38.331Z,7.32
2022-11-15T23:00:10.302Z,7.63
2022-11-15T23:02:37.789Z,7.93
2022-11-15T23:05:06.889Z,8.63
2022-11-15T23:07:34.787Z,8.20
2022-11-15T23:10:26.367Z,7.92
2022-11-15T23:13:11.438Z,7.43
2022-11-15T23:16:03.267Z,6.97
2022-11-15T23:18:33.699Z,7.01
2022-11-15T23:21:08.353Z,7.44
2022-11-15T23:23:35.365Z,7.58
2022-11-15T23:26:02.773Z,7.77
2022-11-15T23:28:30.307Z,7.59
2022-11-15T23:31:22.658Z,7.38
2022-11-15T23:33:58.894Z,8.02
2022-11-15T23:36:27.213Z,7.94
2022-11-15T23:38:54.670Z,7.62
2022-11-15T23:41:23.724Z,6.92
2022-11-15T23:43:51.277Z,7.12
2022-11-15T23:46:20.247Z,7.31
2022-11-15T23:48:48.403Z,7.35
2022-11-15T23:51:15.852Z,7.37
2022-11-15T23:53:43.586Z,7.63
2022-11-15T23:56:13.473Z,7.12
2022-11-15T23:58:41.046Z,7.31
